Terminal Aerodrome Forecast
Issued by NWS Houston/Galveston, TX

Home | Current Version | Previous Version | Text Only | Print | Product List | Glossary On
Versions: 1 2 3 4 5 6 7 8 9 10 11 12 13 14 15 16 17
000
FTUS44 KHGX 192342
TAFGLS
TAF
KGLS 192342Z 2000/2024 17011KT P6SM SKC
     FM200600 21006KT P6SM FEW020
     FM201400 VRB04KT P6SM SCT025
     FM202000 16009KT P6SM FEW030 BKN250=

USA.gov is the U.S. government's official web portal to all federal, state and local government web resources and services.